Time;durP1;ratioP1;P1;durP2;ratioP2;P2;SDS_P1;SDS_P2;PMS_P1;PMS_P2;Temp;Humidity;BMP_temperature;BMP_pressure;BME280_temperature;BME280_humidity;BME280_pressure;Samples;Min_cycle;Max_cycle;Signal;HPM_P1;HPM_P2
2022/12/13 00:00:46;;;;;;;;;;;;;;;;;;7366262;19;1855;-65
2022/12/13 00:03:14;;;;;;;;;;;;;;;;;;7368178;19;842;-65
2022/12/13 00:05:42;;;;;;;;;;;;;;;;;;7367870;19;871;-66
2022/12/13 00:08:10;;;;;;;;;;;;;;;;;;7366574;19;1842;-65
2022/12/13 00:10:38;;;;;;;;;;;;;;;;;;7368818;19;832;-66
2022/12/13 00:13:06;;;;;;;;;;;;;;;;;;7368570;19;815;-64
2022/12/13 00:15:35;;;;;;;;;;;;;;;;;;7368512;19;863;-65
2022/12/13 00:18:03;;;;;;;;;;;;;;;;;;7364649;19;1281;-66
2022/12/13 00:20:31;;;;;;;;;;;;;;;;;;7363648;19;1857;-65
2022/12/13 00:22:59;;;;;;;;;;;;;;;;;;7368055;19;802;-65
2022/12/13 00:25:27;;;;;;;;;;;;;;;;;;7370113;19;1814;-66
2022/12/13 00:27:56;;;;;;;;;;;;;;;;;;7364693;19;1317;-67
2022/12/13 00:30:24;;;;;;;;;;;;;;;;;;7366427;19;786;-65
2022/12/13 00:32:53;;;;;;;;;;;;;;;;;;7367179;19;812;-65
2022/12/13 00:35:21;;;;;;;;;;;;;;;;;;7367420;19;872;-64
2022/12/13 00:37:49;;;;;;;;;;;;;;;;;;7362637;19;1278;-65
2022/12/13 00:40:17;;;;;;;;;;;;;;;;;;7365813;19;1845;-65
2022/12/13 00:42:45;;;;;;;;;;;;;;;;;;7371144;19;1761;-65
2022/12/13 00:45:13;;;;;;;;;;;;;;;;;;7369177;19;1596;-66
2022/12/13 00:47:42;;;;;;;;;;;;;;;;;;7363838;19;1334;-66
2022/12/13 00:50:10;;;;;;;;;;;;;;;;;;7367098;19;811;-65
2022/12/13 00:52:38;;;;;;;;;;;;;;;;;;7367711;19;872;-65
2022/12/13 00:55:07;;;;;;;;;;;;;;;;;;7366366;19;811;-65
2022/12/13 00:57:35;;;;;;;;;;;;;;;;;;7365077;19;1362;-66
2022/12/13 01:00:04;;;;;;;;;;;;;;;;;;7369619;19;1871;-65
2022/12/13 01:02:32;;;;;;;;;;;;;;;;;;7370526;19;1775;-65
2022/12/13 01:05:00;;;;;;;;;;;;;;;;;;7369339;19;1227;-66
2022/12/13 01:07:28;;;;;;;;;;;;;;;;;;7365139;19;1274;-65
2022/12/13 01:09:56;;;;;;;;;;;;;;;;;;7366094;19;871;-67
2022/12/13 01:12:25;;;;;;;;;;;;;;;;;;7366746;19;769;-66
2022/12/13 01:14:53;;;;;;;;;;;;;;;;;;7368129;19;1790;-66
2022/12/13 01:17:21;;;;;;;;;;;;;;;;;;7365554;19;1282;-64
2022/12/13 01:19:49;;;;;;;;;;;;;;;;;;7364311;19;1833;-65
2022/12/13 01:22:17;;;;;;;;;;;;;;;;;;7366540;19;1810;-65
2022/12/13 01:24:45;;;;;;;;;;;;;;;;;;7364914;19;844;-65
2022/12/13 01:27:13;;;;;;;;;;;;;;;;;;7364875;19;1320;-65
2022/12/13 01:29:42;;;;;;;;;;;;;;;;;;7368315;19;1767;-64
2022/12/13 01:32:10;;;;;;;;;;;;;;;;;;7366374;19;839;-64
2022/12/13 01:34:38;;;;;;;;;;;;;;;;;;7365375;19;861;-64
2022/12/13 01:37:06;;;;;;;;;;;;;;;;;;7364446;19;1278;-65
2022/12/13 01:39:34;;;;;;;;;;;;;;;;;;7364270;19;1874;-65
2022/12/13 01:42:02;;;;;;;;;;;;;;;;;;7365200;19;805;-65
2022/12/13 01:44:30;;;;;;;;;;;;;;;;;;7365118;19;806;-65
2022/12/13 01:46:59;;;;;;;;;;;;;;;;;;7366840;19;1814;-64
2022/12/13 01:49:27;;;;;;;;;;;;;;;;;;7364599;19;860;-65
2022/12/13 01:51:55;;;;;;;;;;;;;;;;;;7365146;19;861;-65
2022/12/13 01:54:23;;;;;;;;;;;;;;;;;;7365233;19;791;-65
2022/12/13 01:56:52;;;;;;;;;;;;;;;;;;7364438;19;1353;-66
2022/12/13 01:59:20;;;;;;;;;;;;;;;;;;7364889;19;1870;-65
2022/12/13 02:01:48;;;;;;;;;;;;;;;;;;7364848;19;826;-67
2022/12/13 02:04:16;;;;;;;;;;;;;;;;;;7368763;19;1760;-65
2022/12/13 02:06:45;;;;;;;;;;;;;;;;;;7363724;19;1325;-65
2022/12/13 02:09:13;;;;;;;;;;;;;;;;;;7369386;19;805;-66
2022/12/13 02:11:41;;;;;;;;;;;;;;;;;;7371498;19;850;-64
2022/12/13 02:14:09;;;;;;;;;;;;;;;;;;7370630;19;785;-64
2022/12/13 02:16:37;;;;;;;;;;;;;;;;;;7371731;19;1660;-65
2022/12/13 02:19:05;;;;;;;;;;;;;;;;;;7370380;19;869;-64
2022/12/13 02:21:33;;;;;;;;;;;;;;;;;;7369158;19;1838;-65
2022/12/13 02:24:01;;;;;;;;;;;;;;;;;;7370319;19;811;-64
2022/12/13 02:26:30;;;;;;;;;;;;;;;;;;7369395;19;1271;-64
2022/12/13 02:28:58;;;;;;;;;;;;;;;;;;7370299;19;806;-64
2022/12/13 02:31:26;;;;;;;;;;;;;;;;;;7373513;19;1825;-65
2022/12/13 02:33:54;;;;;;;;;;;;;;;;;;7371016;19;793;-64
2022/12/13 02:36:23;;;;;;;;;;;;;;;;;;7370532;19;1278;-65
2022/12/13 02:38:51;;;;;;;;;;;;;;;;;;7370740;19;849;-65
2022/12/13 02:41:19;;;;;;;;;;;;;;;;;;7369666;19;2112;-65
2022/12/13 02:43:47;;;;;;;;;;;;;;;;;;7370856;19;863;-66
2022/12/13 02:46:15;;;;;;;;;;;;;;;;;;7370456;19;1278;-65
2022/12/13 02:48:43;;;;;;;;;;;;;;;;;;7371764;19;1809;-66
2022/12/13 02:51:11;;;;;;;;;;;;;;;;;;7369987;19;803;-67
2022/12/13 02:53:39;;;;;;;;;;;;;;;;;;7370121;19;874;-66
2022/12/13 02:56:08;;;;;;;;;;;;;;;;;;7369905;19;1437;-66
2022/12/13 02:58:36;;;;;;;;;;;;;;;;;;7369497;19;875;-67
2022/12/13 03:01:04;;;;;;;;;;;;;;;;;;7369126;19;1841;-67
2022/12/13 03:03:32;;;;;;;;;;;;;;;;;;7370775;19;842;-67
2022/12/13 03:08:41;;;;;;;;;;;;;;;;;;7370049;19;786;-67
2022/12/13 03:11:09;;;;;;;;;;;;;;;;;;7369915;19;791;-67
2022/12/13 03:13:38;;;;;;;;;;;;;;;;;;7369983;19;856;-66
2022/12/13 03:16:06;;;;;;;;;;;;;;;;;;7370486;19;1286;-66
2022/12/13 03:18:34;;;;;;;;;;;;;;;;;;7367041;19;1118;-67
2022/12/13 03:21:02;;;;;;;;;;;;;;;;;;7366881;19;1807;-67
2022/12/13 03:23:30;;;;;;;;;;;;;;;;;;7372199;19;1760;-65
2022/12/13 03:25:58;;;;;;;;;;;;;;;;;;7369962;19;803;-67
2022/12/13 03:28:26;;;;;;;;;;;;;;;;;;7366236;19;1322;-67
2022/12/13 03:30:55;;;;;;;;;;;;;;;;;;7369097;19;815;-65
2022/12/13 03:33:23;;;;;;;;;;;;;;;;;;7369220;19;766;-66
2022/12/13 03:35:51;;;;;;;;;;;;;;;;;;7369522;19;835;-64
2022/12/13 03:38:19;;;;;;;;;;;;;;;;;;7365742;19;1274;-63
2022/12/13 03:40:48;;;;;;;;;;;;;;;;;;7370666;19;1847;-64
2022/12/13 03:43:16;;;;;;;;;;;;;;;;;;7371581;19;1812;-65
2022/12/13 03:45:44;;;;;;;;;;;;;;;;;;7368441;19;790;-64
2022/12/13 03:48:12;;;;;;;;;;;;;;;;;;7369752;19;1764;-65
2022/12/13 03:50:40;;;;;;;;;;;;;;;;;;7368248;19;807;-65
2022/12/13 03:53:10;;;;;;;;;;;;;;;;;;7367894;19;858;-64
2022/12/13 03:55:38;;;;;;;;;;;;;;;;;;7367671;19;876;-63
2022/12/13 03:58:06;;;;;;;;;;;;;;;;;;7367107;19;1846;-64
2022/12/13 04:00:34;;;;;;;;;;;;;;;;;;7367755;19;1841;-64
2022/12/13 04:03:02;;;;;;;;;;;;;;;;;;7368879;19;781;-65
2022/12/13 04:05:30;;;;;;;;;;;;;;;;;;7366622;19;824;-65
2022/12/13 04:07:58;;;;;;;;;;;;;;;;;;7365348;19;1322;-65
2022/12/13 04:10:26;;;;;;;;;;;;;;;;;;7366920;19;819;-65
2022/12/13 04:15:35;;;;;;;;;;;;;;;;;;7372920;19;1515;-65
2022/12/13 04:18:04;;;;;;;;;;;;;;;;;;7363778;19;1267;-65
2022/12/13 04:20:32;;;;;;;;;;;;;;;;;;7367104;19;1852;-65
2022/12/13 04:23:00;;;;;;;;;;;;;;;;;;7367542;19;812;-66
2022/12/13 04:25:28;;;;;;;;;;;;;;;;;;7368072;19;808;-66
2022/12/13 04:27:57;;;;;;;;;;;;;;;;;;7364662;19;1369;-64
2022/12/13 04:30:25;;;;;;;;;;;;;;;;;;7368478;19;1771;-67
2022/12/13 04:32:53;;;;;;;;;;;;;;;;;;7366889;19;847;-66
2022/12/13 04:35:22;;;;;;;;;;;;;;;;;;7367417;19;786;-66
2022/12/13 04:37:50;;;;;;;;;;;;;;;;;;7365939;19;1658;-64
2022/12/13 04:40:18;;;;;;;;;;;;;;;;;;7367234;19;1851;-65
2022/12/13 04:42:47;;;;;;;;;;;;;;;;;;7367157;19;866;-66
2022/12/13 04:45:15;;;;;;;;;;;;;;;;;;7368885;19;1861;-65
2022/12/13 04:47:43;;;;;;;;;;;;;;;;;;7364318;19;1251;-65
2022/12/13 04:50:11;;;;;;;;;;;;;;;;;;7367107;19;874;-64
2022/12/13 04:52:41;;;;;;;;;;;;;;;;;;7367352;19;899;-65
2022/12/13 04:55:09;;;;;;;;;;;;;;;;;;7365815;19;929;-65
2022/12/13 04:57:37;;;;;;;;;;;;;;;;;;7364812;19;1291;-65
2022/12/13 05:00:05;;;;;;;;;;;;;;;;;;7367646;19;858;-67
2022/12/13 05:02:33;;;;;;;;;;;;;;;;;;7367180;19;1895;-67
2022/12/13 05:05:02;;;;;;;;;;;;;;;;;;7367744;19;818;-68
2022/12/13 05:07:30;;;;;;;;;;;;;;;;;;7366682;19;1266;-66
2022/12/13 05:09:58;;;;;;;;;;;;;;;;;;7366989;19;808;-67
2022/12/13 05:12:26;;;;;;;;;;;;;;;;;;7367778;19;814;-66
2022/12/13 05:14:54;;;;;;;;;;;;;;;;;;7365923;19;815;-67
2022/12/13 05:17:22;;;;;;;;;;;;;;;;;;7366048;19;1216;-67
2022/12/13 05:19:50;;;;;;;;;;;;;;;;;;7369569;19;1758;-67
2022/12/13 05:22:18;;;;;;;;;;;;;;;;;;7364311;19;1837;-67
2022/12/13 05:24:47;;;;;;;;;;;;;;;;;;7365393;19;833;-66
2022/12/13 05:27:15;;;;;;;;;;;;;;;;;;7364669;19;1278;-69
2022/12/13 05:29:44;;;;;;;;;;;;;;;;;;7366342;19;795;-67
2022/12/13 05:32:12;;;;;;;;;;;;;;;;;;7367503;19;799;-66
2022/12/13 05:34:41;;;;;;;;;;;;;;;;;;7366854;19;874;-67
2022/12/13 05:37:09;;;;;;;;;;;;;;;;;;7367618;19;2047;-67
2022/12/13 05:39:37;;;;;;;;;;;;;;;;;;7367147;19;1789;-67
2022/12/13 05:42:05;;;;;;;;;;;;;;;;;;7364211;19;1834;-68
2022/12/13 05:44:33;;;;;;;;;;;;;;;;;;7372587;19;822;-67
2022/12/13 05:47:01;;;;;;;;;;;;;;;;;;7372299;19;1305;-67
2022/12/13 05:49:30;;;;;;;;;;;;;;;;;;7371591;19;866;-65
2022/12/13 05:51:58;;;;;;;;;;;;;;;;;;7373209;19;851;-68
2022/12/13 05:54:26;;;;;;;;;;;;;;;;;;7377134;19;1679;-68
2022/12/13 05:56:54;;;;;;;;;;;;;;;;;;7372817;19;1278;-68
2022/12/13 05:59:23;;;;;;;;;;;;;;;;;;7372368;19;775;-68
2022/12/13 06:01:51;;;;;;;;;;;;;;;;;;7371740;19;1832;-65
2022/12/13 06:04:19;;;;;;;;;;;;;;;;;;7371978;19;850;-66
2022/12/13 06:06:47;;;;;;;;;;;;;;;;;;7370867;19;1322;-66
2022/12/13 06:09:16;;;;;;;;;;;;;;;;;;7371303;19;1777;-67
2022/12/13 06:11:44;;;;;;;;;;;;;;;;;;7376828;19;1852;-67
2022/12/13 06:14:12;;;;;;;;;;;;;;;;;;7372602;19;865;-68
2022/12/13 06:16:40;;;;;;;;;;;;;;;;;;7371214;19;1266;-68
2022/12/13 06:19:09;;;;;;;;;;;;;;;;;;7372013;19;909;-68
2022/12/13 06:21:37;;;;;;;;;;;;;;;;;;7371130;19;1842;-68
2022/12/13 06:24:07;;;;;;;;;;;;;;;;;;7372347;19;869;-67
2022/12/13 06:26:35;;;;;;;;;;;;;;;;;;7371173;19;1834;-67
2022/12/13 06:29:03;;;;;;;;;;;;;;;;;;7375143;19;2222;-68
2022/12/13 06:31:31;;;;;;;;;;;;;;;;;;7372102;19;866;-67
2022/12/13 06:34:00;;;;;;;;;;;;;;;;;;7371491;19;1087;-66
2022/12/13 06:36:28;;;;;;;;;;;;;;;;;;7369300;19;1286;-68
2022/12/13 06:38:56;;;;;;;;;;;;;;;;;;7370935;19;874;-67
2022/12/13 06:41:24;;;;;;;;;;;;;;;;;;7370928;19;1845;-68
2022/12/13 06:43:52;;;;;;;;;;;;;;;;;;7370048;19;1815;-68
2022/12/13 06:46:20;;;;;;;;;;;;;;;;;;7375976;19;1286;-68
2022/12/13 06:48:48;;;;;;;;;;;;;;;;;;7370579;19;811;-67
2022/12/13 06:51:17;;;;;;;;;;;;;;;;;;7371830;19;985;-67
2022/12/13 06:53:45;;;;;;;;;;;;;;;;;;7370737;19;860;-66
2022/12/13 06:56:13;;;;;;;;;;;;;;;;;;7370213;19;1232;-67
2022/12/13 06:58:41;;;;;;;;;;;;;;;;;;7370362;19;876;-66
2022/12/13 07:01:09;;;;;;;;;;;;;;;;;;7370361;19;1874;-65
2022/12/13 07:03:37;;;;;;;;;;;;;;;;;;7370402;19;784;-66
2022/12/13 07:06:06;;;;;;;;;;;;;;;;;;7370879;19;1361;-66
2022/12/13 07:08:34;;;;;;;;;;;;;;;;;;7371306;19;869;-66
2022/12/13 07:11:03;;;;;;;;;;;;;;;;;;7370978;19;813;-66
2022/12/13 07:13:32;;;;;;;;;;;;;;;;;;7371572;19;848;-66
2022/12/13 07:16:01;;;;;;;;;;;;;;;;;;7371690;19;828;-66
2022/12/13 07:18:29;;;;;;;;;;;;;;;;;;7373614;19;1711;-66
2022/12/13 07:20:57;;;;;;;;;;;;;;;;;;7386405;19;1842;-66
2022/12/13 07:23:25;;;;;;;;;;;;;;;;;;7382735;19;1139;-66
2022/12/13 07:25:54;;;;;;;;;;;;;;;;;;7386600;19;900;-66
2022/12/13 07:28:22;;;;;;;;;;;;;;;;;;7388930;19;1439;-69
2022/12/13 07:30:51;;;;;;;;;;;;;;;;;;7395072;19;1687;-64
2022/12/13 07:33:19;;;;;;;;;;;;;;;;;;7395195;19;1487;-67
2022/12/13 07:35:47;;;;;;;;;;;;;;;;;;7388949;19;1855;-66
2022/12/13 07:38:15;;;;;;;;;;;;;;;;;;7385111;19;1271;-65
2022/12/13 07:40:43;;;;;;;;;;;;;;;;;;7388699;19;712;-65
2022/12/13 07:43:11;;;;;;;;;;;;;;;;;;7369969;19;1841;-68
2022/12/13 07:45:39;;;;;;;;;;;;;;;;;;7370702;19;861;-68
2022/12/13 07:48:08;;;;;;;;;;;;;;;;;;7368285;19;1827;-68
2022/12/13 07:50:36;;;;;;;;;;;;;;;;;;7370766;19;815;-67
2022/12/13 07:53:04;;;;;;;;;;;;;;;;;;7368380;19;785;-67
2022/12/13 07:55:32;;;;;;;;;;;;;;;;;;7369928;19;875;-67
2022/12/13 07:58:00;;;;;;;;;;;;;;;;;;7366790;19;1318;-66
2022/12/13 08:00:29;;;;;;;;;;;;;;;;;;7369946;19;860;-65
2022/12/13 08:02:57;;;;;;;;;;;;;;;;;;7372029;19;2102;-65
2022/12/13 08:05:25;;;;;;;;;;;;;;;;;;7368401;19;815;-65
2022/12/13 08:07:53;;;;;;;;;;;;;;;;;;7367464;19;1345;-66
2022/12/13 08:10:22;;;;;;;;;;;;;;;;;;7370131;19;839;-67
2022/12/13 08:12:50;;;;;;;;;;;;;;;;;;7370356;19;798;-66
2022/12/13 08:15:19;;;;;;;;;;;;;;;;;;7369010;19;2064;-66
2022/12/13 08:17:47;;;;;;;;;;;;;;;;;;7366592;19;1355;-68
2022/12/13 08:20:16;;;;;;;;;;;;;;;;;;7368833;19;859;-66
2022/12/13 08:22:44;;;;;;;;;;;;;;;;;;7367324;19;1851;-66
2022/12/13 08:25:12;;;;;;;;;;;;;;;;;;7368658;19;803;-66
2022/12/13 08:27:41;;;;;;;;;;;;;;;;;;7367186;19;1314;-66
2022/12/13 08:30:09;;;;;;;;;;;;;;;;;;7368744;19;906;-67
2022/12/13 08:32:37;;;;;;;;;;;;;;;;;;7369413;19;1665;-67
2022/12/13 08:35:05;;;;;;;;;;;;;;;;;;7368045;19;827;-68
2022/12/13 08:37:33;;;;;;;;;;;;;;;;;;7366808;19;1321;-66
2022/12/13 08:40:02;;;;;;;;;;;;;;;;;;7367195;19;862;-66
2022/12/13 08:42:30;;;;;;;;;;;;;;;;;;7366799;19;1869;-67
2022/12/13 08:44:59;;;;;;;;;;;;;;;;;;7368646;19;828;-67
2022/12/13 08:47:27;;;;;;;;;;;;;;;;;;7366022;19;1326;-67
2022/12/13 08:49:55;;;;;;;;;;;;;;;;;;7367089;19;2050;-68
2022/12/13 08:52:23;;;;;;;;;;;;;;;;;;7368586;19;753;-67
2022/12/13 08:54:52;;;;;;;;;;;;;;;;;;7368799;19;846;-66
2022/12/13 08:57:20;;;;;;;;;;;;;;;;;;7367849;19;1261;-65
2022/12/13 08:59:48;;;;;;;;;;;;;;;;;;7368537;19;869;-65
2022/12/13 09:02:16;;;;;;;;;;;;;;;;;;7368210;19;1856;-66
2022/12/13 09:04:44;;;;;;;;;;;;;;;;;;7370977;19;1408;-66
2022/12/13 09:07:13;;;;;;;;;;;;;;;;;;7367951;19;1342;-65
2022/12/13 09:09:41;;;;;;;;;;;;;;;;;;7369142;19;1674;-64
2022/12/13 09:12:09;;;;;;;;;;;;;;;;;;7368731;19;846;-64
2022/12/13 09:14:37;;;;;;;;;;;;;;;;;;7368780;19;849;-64
2022/12/13 09:17:05;;;;;;;;;;;;;;;;;;7367510;19;1288;-65
2022/12/13 09:19:33;;;;;;;;;;;;;;;;;;7370037;19;1917;-65
2022/12/13 09:22:02;;;;;;;;;;;;;;;;;;7371097;19;1839;-65
2022/12/13 09:24:30;;;;;;;;;;;;;;;;;;7372687;19;1797;-64
2022/12/13 09:26:58;;;;;;;;;;;;;;;;;;7370823;19;1777;-65
2022/12/13 09:29:26;;;;;;;;;;;;;;;;;;7366931;19;1832;-64
2022/12/13 09:31:54;;;;;;;;;;;;;;;;;;7371965;19;1615;-64
2022/12/13 09:34:23;;;;;;;;;;;;;;;;;;7370769;19;1795;-65
2022/12/13 09:36:51;;;;;;;;;;;;;;;;;;7370729;19;1874;-65
2022/12/13 09:39:19;;;;;;;;;;;;;;;;;;7368053;19;862;-65
2022/12/13 09:41:47;;;;;;;;;;;;;;;;;;7367750;19;1849;-65
2022/12/13 09:44:15;;;;;;;;;;;;;;;;;;7368792;19;874;-65
2022/12/13 09:46:44;;;;;;;;;;;;;;;;;;7367638;19;1805;-64
2022/12/13 09:49:12;;;;;;;;;;;;;;;;;;7366780;19;812;-64
2022/12/13 09:51:40;;;;;;;;;;;;;;;;;;7369783;19;1754;-64
2022/12/13 09:54:08;;;;;;;;;;;;;;;;;;7368112;19;802;-65
2022/12/13 09:56:36;;;;;;;;;;;;;;;;;;7366919;19;1267;-64
2022/12/13 09:59:04;;;;;;;;;;;;;;;;;;7365596;19;774;-65
2022/12/13 10:01:32;;;;;;;;;;;;;;;;;;7369005;19;1594;-65
2022/12/13 10:04:01;;;;;;;;;;;;;;;;;;7364883;19;1850;-65
2022/12/13 10:06:31;;;;;;;;;;;;;;;;;;7366199;19;1325;-65
2022/12/13 10:08:59;;;;;;;;;;;;;;;;;;7367699;19;675;-64
2022/12/13 10:11:27;;;;;;;;;;;;;;;;;;7367664;19;866;-64
2022/12/13 10:13:56;;;;;;;;;;;;;;;;;;7366845;19;867;-64
2022/12/13 10:16:24;;;;;;;;;;;;;;;;;;7366179;19;1287;-64
2022/12/13 10:18:52;;;;;;;;;;;;;;;;;;7370138;19;1800;-64
2022/12/13 10:21:21;;;;;;;;;;;;;;;;;;7373639;19;928;-66
2022/12/13 10:23:49;;;;;;;;;;;;;;;;;;7370863;19;1851;-67
2022/12/13 10:28:48;;;;;;;;;;;;;;;;;;7372435;19;759;-65
2022/12/13 10:31:17;;;;;;;;;;;;;;;;;;7373605;19;837;-65
2022/12/13 10:33:45;;;;;;;;;;;;;;;;;;7372831;19;790;-64
2022/12/13 10:36:13;;;;;;;;;;;;;;;;;;7373093;19;1365;-64
2022/12/13 10:38:41;;;;;;;;;;;;;;;;;;7371519;19;858;-65
2022/12/13 10:41:09;;;;;;;;;;;;;;;;;;7376242;19;1799;-64
2022/12/13 10:43:37;;;;;;;;;;;;;;;;;;7371183;19;1858;-65
2022/12/13 10:46:06;;;;;;;;;;;;;;;;;;7371627;19;1789;-64
2022/12/13 10:48:34;;;;;;;;;;;;;;;;;;7375155;19;1823;-65
2022/12/13 10:51:02;;;;;;;;;;;;;;;;;;7372747;19;761;-65
2022/12/13 10:53:31;;;;;;;;;;;;;;;;;;7370502;19;810;-65
2022/12/13 10:55:59;;;;;;;;;;;;;;;;;;7376025;19;1744;-65
2022/12/13 10:58:27;;;;;;;;;;;;;;;;;;7368549;19;1236;-64
2022/12/13 11:00:55;;;;;;;;;;;;;;;;;;7371226;19;836;-64
2022/12/13 11:03:24;;;;;;;;;;;;;;;;;;7369725;19;1853;-64
2022/12/13 11:05:52;;;;;;;;;;;;;;;;;;7372058;19;850;-64
2022/12/13 11:08:20;;;;;;;;;;;;;;;;;;7368113;19;1326;-64
2022/12/13 11:10:48;;;;;;;;;;;;;;;;;;7370420;19;1750;-65
2022/12/13 11:13:16;;;;;;;;;;;;;;;;;;7371226;19;1780;-67
2022/12/13 11:15:45;;;;;;;;;;;;;;;;;;7370958;19;814;-64
2022/12/13 11:18:13;;;;;;;;;;;;;;;;;;7367853;19;1280;-65
2022/12/13 11:20:41;;;;;;;;;;;;;;;;;;7370809;19;847;-65
2022/12/13 11:23:09;;;;;;;;;;;;;;;;;;7369702;19;1845;-65
2022/12/13 11:25:37;;;;;;;;;;;;;;;;;;7370722;19;815;-65
2022/12/13 11:28:06;;;;;;;;;;;;;;;;;;7368285;19;1651;-65
2022/12/13 11:30:34;;;;;;;;;;;;;;;;;;7371682;19;844;-65
2022/12/13 11:33:02;;;;;;;;;;;;;;;;;;7370207;19;823;-64
2022/12/13 11:35:30;;;;;;;;;;;;;;;;;;7373382;19;1803;-66
2022/12/13 11:37:59;;;;;;;;;;;;;;;;;;7372027;19;1776;-64
2022/12/13 11:40:27;;;;;;;;;;;;;;;;;;7371000;19;1695;-63
2022/12/13 11:42:55;;;;;;;;;;;;;;;;;;7371658;19;1818;-63
2022/12/13 11:45:24;;;;;;;;;;;;;;;;;;7369616;19;803;-65
2022/12/13 11:47:52;;;;;;;;;;;;;;;;;;7371291;19;1812;-66
2022/12/13 11:50:20;;;;;;;;;;;;;;;;;;7370676;19;819;-65
2022/12/13 11:52:49;;;;;;;;;;;;;;;;;;7370571;19;800;-65
2022/12/13 11:55:17;;;;;;;;;;;;;;;;;;7370445;19;809;-65
2022/12/13 11:57:45;;;;;;;;;;;;;;;;;;7368501;19;1180;-65
2022/12/13 12:00:13;;;;;;;;;;;;;;;;;;7369160;19;796;-65
2022/12/13 12:02:42;;;;;;;;;;;;;;;;;;7365247;19;1837;-66
2022/12/13 12:05:14;;;;;;;;;;;;;;;;;;7366104;19;1154;-66
2022/12/13 12:07:43;;;;;;;;;;;;;;;;;;7366982;19;1283;-65
2022/12/13 12:10:12;;;;;;;;;;;;;;;;;;7370023;19;809;-65
2022/12/13 12:12:40;;;;;;;;;;;;;;;;;;7370206;19;782;-65
2022/12/13 12:15:08;;;;;;;;;;;;;;;;;;7370643;19;716;-65
2022/12/13 12:17:36;;;;;;;;;;;;;;;;;;7367657;19;1282;-65
2022/12/13 12:20:04;;;;;;;;;;;;;;;;;;7369104;19;805;-65
2022/12/13 12:22:32;;;;;;;;;;;;;;;;;;7369090;19;1852;-64
2022/12/13 12:25:00;;;;;;;;;;;;;;;;;;7369275;19;781;-64
2022/12/13 12:27:29;;;;;;;;;;;;;;;;;;7367607;19;1290;-65
2022/12/13 12:29:57;;;;;;;;;;;;;;;;;;7370112;19;891;-64
2022/12/13 12:32:25;;;;;;;;;;;;;;;;;;7369113;19;784;-65
2022/12/13 12:34:54;;;;;;;;;;;;;;;;;;7368929;19;848;-65
2022/12/13 12:37:22;;;;;;;;;;;;;;;;;;7368246;19;1334;-65
2022/12/13 12:39:50;;;;;;;;;;;;;;;;;;7367386;19;842;-64
2022/12/13 12:42:18;;;;;;;;;;;;;;;;;;7369343;19;968;-65
2022/12/13 12:44:46;;;;;;;;;;;;;;;;;;7364546;19;1843;-64
2022/12/13 12:47:14;;;;;;;;;;;;;;;;;;7367529;19;1262;-65
2022/12/13 12:49:42;;;;;;;;;;;;;;;;;;7366544;19;800;-65
2022/12/13 12:52:10;;;;;;;;;;;;;;;;;;7368264;19;790;-64
2022/12/13 12:54:39;;;;;;;;;;;;;;;;;;7367735;19;818;-64
2022/12/13 12:57:07;;;;;;;;;;;;;;;;;;7367242;19;1344;-65
2022/12/13 12:59:35;;;;;;;;;;;;;;;;;;7367280;19;967;-63
2022/12/13 13:02:03;;;;;;;;;;;;;;;;;;7369641;19;895;-64
2022/12/13 13:04:31;;;;;;;;;;;;;;;;;;7365662;19;1866;-64
2022/12/13 13:07:00;;;;;;;;;;;;;;;;;;7368145;19;1322;-65
2022/12/13 13:09:28;;;;;;;;;;;;;;;;;;7367447;19;808;-65
2022/12/13 13:11:56;;;;;;;;;;;;;;;;;;7368521;19;839;-65
2022/12/13 13:14:25;;;;;;;;;;;;;;;;;;7368911;19;769;-65
2022/12/13 13:16:54;;;;;;;;;;;;;;;;;;7367925;19;1267;-65
2022/12/13 13:19:22;;;;;;;;;;;;;;;;;;7367780;19;817;-64
2022/12/13 13:21:51;;;;;;;;;;;;;;;;;;7369321;19;783;-65
2022/12/13 13:24:19;;;;;;;;;;;;;;;;;;7366065;19;1880;-65
2022/12/13 13:26:48;;;;;;;;;;;;;;;;;;7366709;19;1282;-65
2022/12/13 13:29:16;;;;;;;;;;;;;;;;;;7366820;19;748;-64
2022/12/13 13:31:44;;;;;;;;;;;;;;;;;;7367896;19;850;-64
2022/12/13 13:34:12;;;;;;;;;;;;;;;;;;7367616;19;811;-64
2022/12/13 13:36:41;;;;;;;;;;;;;;;;;;7366198;19;1286;-64
2022/12/13 13:39:09;;;;;;;;;;;;;;;;;;7369762;19;828;-64
2022/12/13 13:41:37;;;;;;;;;;;;;;;;;;7369811;19;875;-65
2022/12/13 13:44:05;;;;;;;;;;;;;;;;;;7369151;19;1837;-64
2022/12/13 13:46:34;;;;;;;;;;;;;;;;;;7368751;19;1271;-64
2022/12/13 13:49:02;;;;;;;;;;;;;;;;;;7372003;19;847;-65
2022/12/13 13:51:30;;;;;;;;;;;;;;;;;;7372959;19;931;-64
2022/12/13 13:53:58;;;;;;;;;;;;;;;;;;7372231;19;864;-65
2022/12/13 13:56:26;;;;;;;;;;;;;;;;;;7371055;19;1415;-64
2022/12/13 13:58:54;;;;;;;;;;;;;;;;;;7372360;19;850;-63
2022/12/13 14:01:23;;;;;;;;;;;;;;;;;;7372165;19;844;-63
2022/12/13 14:03:51;;;;;;;;;;;;;;;;;;7373278;19;1838;-64
2022/12/13 14:06:20;;;;;;;;;;;;;;;;;;7378818;19;1278;-63
2022/12/13 14:08:48;;;;;;;;;;;;;;;;;;7381149;19;1076;-64
2022/12/13 14:11:16;;;;;;;;;;;;;;;;;;7380623;19;764;-64
2022/12/13 14:13:44;;;;;;;;;;;;;;;;;;7375753;19;847;-64
2022/12/13 14:16:13;;;;;;;;;;;;;;;;;;7375502;19;1683;-62
2022/12/13 14:18:41;;;;;;;;;;;;;;;;;;7378402;19;1740;-63
2022/12/13 14:21:09;;;;;;;;;;;;;;;;;;7375064;19;800;-63
2022/12/13 14:23:37;;;;;;;;;;;;;;;;;;7372033;19;1828;-64
2022/12/13 14:26:06;;;;;;;;;;;;;;;;;;7373565;19;859;-63
2022/12/13 14:28:34;;;;;;;;;;;;;;;;;;7372199;19;1756;-64
2022/12/13 14:31:02;;;;;;;;;;;;;;;;;;7377053;19;1810;-64
2022/12/13 14:33:31;;;;;;;;;;;;;;;;;;7372756;19;796;-64
2022/12/13 14:35:59;;;;;;;;;;;;;;;;;;7373010;19;815;-64
2022/12/13 14:38:28;;;;;;;;;;;;;;;;;;7369622;19;1267;-64
2022/12/13 14:40:57;;;;;;;;;;;;;;;;;;7372572;19;875;-65
2022/12/13 14:43:25;;;;;;;;;;;;;;;;;;7371304;19;1834;-65
2022/12/13 14:45:53;;;;;;;;;;;;;;;;;;7372507;19;838;-64
2022/12/13 14:48:21;;;;;;;;;;;;;;;;;;7368958;19;1297;-64
2022/12/13 14:50:51;;;;;;;;;;;;;;;;;;7376366;19;1627;-64
2022/12/13 14:53:19;;;;;;;;;;;;;;;;;;7372979;19;808;-64
2022/12/13 14:55:47;;;;;;;;;;;;;;;;;;7372639;19;818;-63
2022/12/13 14:58:15;;;;;;;;;;;;;;;;;;7369568;19;1274;-65
2022/12/13 15:00:44;;;;;;;;;;;;;;;;;;7375756;19;1794;-64
2022/12/13 15:03:13;;;;;;;;;;;;;;;;;;7374874;19;1842;-63
2022/12/13 15:05:41;;;;;;;;;;;;;;;;;;7371332;19;875;-63
2022/12/13 15:08:09;;;;;;;;;;;;;;;;;;7367796;19;1290;-64
2022/12/13 15:10:37;;;;;;;;;;;;;;;;;;7371184;19;808;-64
2022/12/13 15:13:05;;;;;;;;;;;;;;;;;;7372534;19;1706;-64
2022/12/13 15:15:33;;;;;;;;;;;;;;;;;;7370097;19;814;-64
2022/12/13 15:18:02;;;;;;;;;;;;;;;;;;7369399;19;1227;-64
2022/12/13 15:20:30;;;;;;;;;;;;;;;;;;7373800;19;1473;-64
2022/12/13 15:23:03;;;;;;;;;;;;;;;;;;7372155;19;2127;-67
2022/12/13 15:25:34;;;;;;;;;;;;;;;;;;7371234;19;1851;-66
2022/12/13 15:28:02;;;;;;;;;;;;;;;;;;7368152;19;1235;-64
2022/12/13 15:30:30;;;;;;;;;;;;;;;;;;7369013;19;782;-63
2022/12/13 15:32:59;;;;;;;;;;;;;;;;;;7370990;19;826;-67
2022/12/13 15:35:27;;;;;;;;;;;;;;;;;;7371037;19;1835;-63
2022/12/13 15:37:55;;;;;;;;;;;;;;;;;;7366503;19;1363;-64
2022/12/13 15:40:23;;;;;;;;;;;;;;;;;;7370510;19;795;-63
2022/12/13 15:42:51;;;;;;;;;;;;;;;;;;7370084;19;2051;-63
2022/12/13 15:45:19;;;;;;;;;;;;;;;;;;7372125;19;1846;-63
2022/12/13 15:47:48;;;;;;;;;;;;;;;;;;7371574;19;2044;-63
2022/12/13 15:50:16;;;;;;;;;;;;;;;;;;7371137;19;876;-63
2022/12/13 15:52:44;;;;;;;;;;;;;;;;;;7373332;19;1796;-63
2022/12/13 15:55:12;;;;;;;;;;;;;;;;;;7374341;19;1565;-64
2022/12/13 15:57:41;;;;;;;;;;;;;;;;;;7368813;19;1622;-61
2022/12/13 16:00:09;;;;;;;;;;;;;;;;;;7370539;19;783;-66
2022/12/13 16:02:40;;;;;;;;;;;;;;;;;;7369395;19;969;-63
2022/12/13 16:05:08;;;;;;;;;;;;;;;;;;7367270;19;1842;-63
2022/12/13 16:07:38;;;;;;;;;;;;;;;;;;7366952;19;1857;-63
2022/12/13 16:10:06;;;;;;;;;;;;;;;;;;7367783;19;986;-63
2022/12/13 16:12:35;;;;;;;;;;;;;;;;;;7366799;19;795;-63
2022/12/13 16:15:03;;;;;;;;;;;;;;;;;;7369104;19;870;-63
2022/12/13 16:17:31;;;;;;;;;;;;;;;;;;7365587;19;1328;-62
2022/12/13 16:19:59;;;;;;;;;;;;;;;;;;7372313;19;1828;-62
2022/12/13 16:22:27;;;;;;;;;;;;;;;;;;7368035;19;832;-63
2022/12/13 16:24:56;;;;;;;;;;;;;;;;;;7367425;19;1849;-63
2022/12/13 16:27:24;;;;;;;;;;;;;;;;;;7369426;19;1805;-63
2022/12/13 16:29:52;;;;;;;;;;;;;;;;;;7367582;19;880;-62
2022/12/13 16:32:20;;;;;;;;;;;;;;;;;;7368033;19;866;-62
2022/12/13 16:34:48;;;;;;;;;;;;;;;;;;7368036;19;855;-64
2022/12/13 16:37:17;;;;;;;;;;;;;;;;;;7369353;19;1802;-63
2022/12/13 16:39:45;;;;;;;;;;;;;;;;;;7366934;19;861;-64
2022/12/13 16:42:13;;;;;;;;;;;;;;;;;;7367510;19;792;-63
2022/12/13 16:44:41;;;;;;;;;;;;;;;;;;7366706;19;1866;-64
2022/12/13 16:47:10;;;;;;;;;;;;;;;;;;7370281;19;1762;-64
2022/12/13 16:49:39;;;;;;;;;;;;;;;;;;7366817;19;865;-64
2022/12/13 16:52:08;;;;;;;;;;;;;;;;;;7367242;19;847;-63
2022/12/13 16:54:36;;;;;;;;;;;;;;;;;;7371446;19;1757;-63
2022/12/13 16:57:04;;;;;;;;;;;;;;;;;;7366180;19;1300;-64
2022/12/13 16:59:32;;;;;;;;;;;;;;;;;;7366751;19;870;-64
2022/12/13 17:02:00;;;;;;;;;;;;;;;;;;7367282;19;810;-63
2022/12/13 17:04:28;;;;;;;;;;;;;;;;;;7370005;19;1860;-63
2022/12/13 17:06:56;;;;;;;;;;;;;;;;;;7366438;19;1283;-62
2022/12/13 17:09:25;;;;;;;;;;;;;;;;;;7366341;19;871;-63
2022/12/13 17:11:53;;;;;;;;;;;;;;;;;;7367439;19;876;-63
2022/12/13 17:14:21;;;;;;;;;;;;;;;;;;7370138;19;1914;-62
2022/12/13 17:16:49;;;;;;;;;;;;;;;;;;7366676;19;1274;-63
2022/12/13 17:19:17;;;;;;;;;;;;;;;;;;7368536;19;1806;-63
2022/12/13 17:21:45;;;;;;;;;;;;;;;;;;7368275;19;842;-62
2022/12/13 17:24:14;;;;;;;;;;;;;;;;;;7370249;19;1838;-63